• Join FlightAware (Why Join?)
  • Login
  • US Flag 
07:15PM EST


 

Airport Tracker/Info


-or-


 

Live Flight TrackerFlight Track Log ✈ LXJ342 ✈ 30-Aug-2013 ✈ CYYZ - KDET

Flight Track Log - Related Links

Times and Time Zones

All times are in EDT time to prevent confusion due to time zone crossing. See the LXJ342 flight status page for this flight to view local times or setup timezone preferences in your user account.

Time Position Orientation Groundspeed Altitude Reporting Facility
EDT Latitude Longitude Course Direction KTS MPH feet Rate Location/Type
09:22AM 43.6500 -79.6833 236° Southwest 200 230 3,000  Level Toronto Center
09:23AM 43.6000 -79.7500 224° Southwest 250 288 4,800 1,560 Climbing Toronto Center
09:24AM 43.5500 -79.8000 216° Southwest 260 299 6,200 1,320 Climbing Toronto Center
09:25AM 43.4833 -79.8333 200° South 270 311 7,500 2,220 Climbing Toronto Center
09:26AM 43.4500 -79.9333 245° Southwest 270 311 10,700 3,000 Climbing Toronto Center
09:27AM 43.3558 -80.2552 236° Southwest  Level FlightAware Approximate
09:27AM 43.4333 -80.0167 255° West 290 334 13,600  Level Toronto Center
09:28AM 43.3833 -80.1667 245° Southwest 330 380 16,700 2,940 Climbing Toronto Center
09:29AM 43.3500 -80.2667 245° Southwest 340 391 19,500 2,460 Climbing Toronto Center
09:30AM 43.3167 -80.4167 253° West 360 414 21,700 1,200 Climbing Toronto Center
09:31AM 43.2667 -80.5500 243° Southwest 390 449 22,000 120 Climbing Toronto Center
09:32AM 43.2333 -80.6833 251° West 400 460 22,000  Level Toronto Center
09:33AM 43.1667 -80.8167 236° Southwest 400 460 22,000  Level Toronto Center
09:34AM 43.1333 -80.9500 251° West 400 460 22,000  Level Toronto Center
09:35AM 43.0833 -81.1000 246° West 400 460 22,000 -180 Level Toronto Center
09:36AM 43.0500 -81.2500 253° West 400 460 21,700 -1,080 Descending Toronto Center
09:37AM 43.0000 -81.3833 243° Southwest 400 460 19,900 -2,040 Descending Toronto Center
09:38AM 42.9667 -81.5000 249° West 370 426 17,700 -1,980 Descending Toronto Center
09:39AM 42.9333 -81.6333 251° West 350 403 16,000 -1,680 Descending Toronto Center
09:40AM 42.9000 -81.7500 249° West 340 391 14,400 -1,560 Descending Toronto Center
09:41AM 42.8667 -81.8667 249° West 330 380 12,900 -1,260 Descending Toronto Center
09:41AM 42.8397 -81.9478 246° West 335 386 12,400 -600 Descending Cleveland Center
09:42AM 42.8092 -82.0633 250° West 335 386 12,000 -600 Descending Cleveland Center
09:43AM 42.7783 -82.1786 250° West 330 380 11,300 -660 Descending Cleveland Center
09:44AM 42.7519 -82.2881 252° West 324 373 10,700 -1,260 Descending Cleveland Center
09:45AM 42.7253 -82.3919 251° West 313 360 8,800 -1,860 Descending Cleveland Center
09:46AM 42.6986 -82.4872 249° West 292 336 7,000 -1,620 Descending Cleveland Center
09:47AM 42.6681 -82.5794 246° West 278 320 5,600 -1,020 Descending Cleveland Center
09:48AM 42.6006 -82.6169 202° Southwest 254 292 5,000 -300 Descending Cleveland Center
09:49AM 42.5353 -82.6600 206° Southwest 254 292 5,000  Level Cleveland Center
09:50AM 42.4883 -82.7175 222° Southwest 251 289 5,000 -600 Level Cleveland Center
09:51AM 42.5075 -82.7997 288° West 194 223 3,900 -840 Descending Cleveland Center
09:53AM 42.5347 -82.9022 290° West 188 216 3,100 -360 Descending Cleveland Center
09:54AM 42.5519 -82.9817 286° West 189 217 3,100 -120 Level Cleveland Center
09:55AM 42.5364 -83.0233 243° Southwest 164 189 2,900 -660 Descending Cleveland Center
09:55AM 42.5047 -83.0447 206° Southwest 141 162 2,000 -600 Descending Cleveland Center
09:57AM 42.4631 -83.0458 181° South 139 160 1,800 -480 Descending Cleveland Center
09:58AM 42.4258 -83.0247 157° South 131 151 1,000 -840 Descending Cleveland Center